createdAt,value
2019-04-21T00:03:53.902Z,83.40
2019-04-21T00:08:27.113Z,83.20
2019-04-21T00:12:35.626Z,84.20
2019-04-21T00:16:12.044Z,83.70
2019-04-21T00:20:28.364Z,83.60
2019-04-21T00:24:41.257Z,83.50
2019-04-21T00:28:59.425Z,83.20
2019-04-21T00:32:54.489Z,84.50
2019-04-21T00:37:02.517Z,83.80
2019-04-21T00:41:23.601Z,84.10
2019-04-21T00:45:20.642Z,84.10
2019-04-21T00:49:25.750Z,84.00
2019-04-21T00:53:51.636Z,84.10
2019-04-21T00:57:52.115Z,84.10
2019-04-21T01:01:56.184Z,84.60
2019-04-21T01:06:03.280Z,85.90
2019-04-21T01:10:01.396Z,86.60
2019-04-21T01:14:21.950Z,86.80
2019-04-21T01:18:20.553Z,87.40
2019-04-21T01:22:07.141Z,87.60
2019-04-21T01:26:25.103Z,88.60
2019-04-21T01:30:42.924Z,88.50
2019-04-21T01:34:45.579Z,88.50
2019-04-21T01:38:55.116Z,88.90
2019-04-21T01:43:03.084Z,88.90
2019-04-21T01:47:04.861Z,89.10
2019-04-21T01:51:15.655Z,89.10
2019-04-21T01:55:45.594Z,90.00
2019-04-21T01:59:40.272Z,90.50
2019-04-21T02:04:09.427Z,90.30
2019-04-21T02:07:54.885Z,90.40
2019-04-21T02:12:10.109Z,91.00
2019-04-21T02:16:19.021Z,91.40
2019-04-21T02:20:15.201Z,91.70
2019-04-21T02:24:37.355Z,91.60
2019-04-21T02:28:42.783Z,91.70
2019-04-21T02:33:03.839Z,91.70
2019-04-21T02:37:19.473Z,91.90
2019-04-21T02:40:57.512Z,91.90
2019-04-21T02:49:23.026Z,92.40
2019-04-21T02:53:27.039Z,92.20
2019-04-21T03:06:27.026Z,92.20
2019-04-21T03:14:50.334Z,92.30
2019-04-21T03:27:09.807Z,92.60
2019-04-21T03:31:19.609Z,92.70
2019-04-21T03:39:07.801Z,93.30
2019-04-21T03:43:21.348Z,93.30
2019-04-21T03:59:45.854Z,94.40
2019-04-21T04:08:52.517Z,94.80
2019-04-21T04:12:34.525Z,95.10
2019-04-21T04:16:49.803Z,95.40
2019-04-21T04:20:51.313Z,95.40
2019-04-21T04:33:12.872Z,95.60
2019-04-21T04:37:30.714Z,95.20
2019-04-21T04:41:33.443Z,95.60
2019-04-21T04:45:46.660Z,95.50
2019-04-21T04:49:48.062Z,95.20
2019-04-21T04:53:46.949Z,95.50
2019-04-21T05:10:42.589Z,94.90
2019-04-21T05:14:41.098Z,95.10
2019-04-21T05:18:56.513Z,94.50
2019-04-21T05:22:47.305Z,94.60
2019-04-21T05:26:49.400Z,94.60
2019-04-21T05:31:23.662Z,94.60
2019-04-21T05:35:43.731Z,93.90
2019-04-21T05:39:50.843Z,93.80
2019-04-21T05:43:57.508Z,93.90
2019-04-21T05:48:24.174Z,93.90
2019-04-21T05:52:19.651Z,93.90
2019-04-21T05:56:32.401Z,94.00
2019-04-21T06:00:59.179Z,93.80
2019-04-21T06:05:18.513Z,93.40
2019-04-21T06:08:53.636Z,92.50
2019-04-21T06:13:07.107Z,91.40
2019-04-21T06:17:11.016Z,90.70
2019-04-21T06:21:19.045Z,90.20
2019-04-21T06:29:30.170Z,86.40
2019-04-21T06:33:41.716Z,84.00
2019-04-21T06:41:45.276Z,82.10
2019-04-21T06:46:05.775Z,82.40
2019-04-21T06:50:02.098Z,80.70
2019-04-21T06:54:14.465Z,74.80
2019-04-21T06:58:22.799Z,71.60
2019-04-21T07:02:39.709Z,67.30
2019-04-21T07:06:40.368Z,69.20
2019-04-21T07:10:37.273Z,63.00
2019-04-21T07:14:42.071Z,62.50
2019-04-21T07:19:01.158Z,60.70
2019-04-21T07:23:03.564Z,55.40
2019-04-21T07:27:25.552Z,56.10
2019-04-21T07:31:22.774Z,53.90
2019-04-21T07:35:32.184Z,50.80
2019-04-21T07:39:22.411Z,50.10
2019-04-21T07:43:28.624Z,50.30
2019-04-21T07:47:53.134Z,49.20
2019-04-21T07:52:24.817Z,48.10
2019-04-21T07:56:16.187Z,46.60
2019-04-21T08:00:45.022Z,38.80
2019-04-21T08:04:55.973Z,40.20
2019-04-21T08:08:48.931Z,40.80
2019-04-21T08:12:54.272Z,39.80
2019-04-21T08:17:03.140Z,41.40
2019-04-21T08:21:06.246Z,39.70
2019-04-21T08:25:15.173Z,37.80
2019-04-21T08:29:38.052Z,36.80
2019-04-21T08:37:39.887Z,31.50
2019-04-21T08:41:43.777Z,28.00
2019-04-21T08:45:54.103Z,27.10
2019-04-21T08:50:02.102Z,26.50
2019-04-21T08:54:16.555Z,25.90
2019-04-21T08:58:47.906Z,25.50
2019-04-21T09:03:04.544Z,22.90
2019-04-21T09:11:06.915Z,20.80
2019-04-21T09:15:14.393Z,19.50
2019-04-21T09:19:35.366Z,20.30
2019-04-21T09:23:35.119Z,20.30
2019-04-21T09:27:36.768Z,20.50
2019-04-21T09:31:31.878Z,17.70
2019-04-21T09:35:33.967Z,18.20
2019-04-21T09:39:43.933Z,17.80
2019-04-21T09:43:52.120Z,18.80
2019-04-21T09:48:02.746Z,17.70
2019-04-21T09:52:02.385Z,17.60
2019-04-21T09:56:11.787Z,17.70
2019-04-21T10:00:22.418Z,17.10
2019-04-21T10:04:23.089Z,17.70
2019-04-21T10:08:29.434Z,19.90
2019-04-21T10:12:35.086Z,17.40
2019-04-21T10:17:05.038Z,17.00
2019-04-21T10:21:13.153Z,15.80
2019-04-21T10:25:18.718Z,16.60
2019-04-21T10:29:29.099Z,13.40
2019-04-21T10:33:32.431Z,14.00
2019-04-21T10:37:49.859Z,13.60
2019-04-21T10:41:47.634Z,15.30
2019-04-21T10:46:16.989Z,13.80
2019-04-21T10:50:38.911Z,13.80
2019-04-21T10:55:17.194Z,13.60
2019-04-21T10:59:27.092Z,12.70
2019-04-21T11:04:21.165Z,12.00
2019-04-21T11:08:50.311Z,12.10
2019-04-21T11:13:14.377Z,12.40
2019-04-21T11:22:53.571Z,11.40
2019-04-21T11:27:06.714Z,12.50
2019-04-21T11:31:20.810Z,12.20
2019-04-21T11:35:41.287Z,13.80
2019-04-21T11:39:55.032Z,13.10
2019-04-21T11:43:57.142Z,10.90
2019-04-21T11:48:24.301Z,10.30
2019-04-21T11:52:29.323Z,11.20
2019-04-21T11:56:34.789Z,12.20
2019-04-21T12:00:42.240Z,10.90
2019-04-21T12:04:47.566Z,10.50
2019-04-21T12:08:55.531Z,10.50
2019-04-21T12:13:01.387Z,8.70
2019-04-21T12:17:07.893Z,9.50
2019-04-21T12:21:16.013Z,8.70
2019-04-21T12:25:22.994Z,10.70
2019-04-21T12:29:29.097Z,9.90
2019-04-21T12:33:46.222Z,9.10
2019-04-21T12:37:51.243Z,9.40
2019-04-21T12:41:56.450Z,9.20
2019-04-21T12:46:02.199Z,10.50
2019-04-21T12:50:08.705Z,10.10
2019-04-21T12:54:15.337Z,9.20
2019-04-21T12:58:21.516Z,9.20
2019-04-21T13:02:27.429Z,9.90
2019-04-21T13:06:33.755Z,10.30
2019-04-21T13:10:40.199Z,9.70
2019-04-21T13:14:45.388Z,9.00
2019-04-21T13:18:51.218Z,7.40
2019-04-21T13:22:57.704Z,6.50
2019-04-21T13:27:03.962Z,7.60
2019-04-21T13:31:09.596Z,8.00
2019-04-21T13:35:16.956Z,7.80
2019-04-21T13:40:14.697Z,8.50
2019-04-21T13:44:17.254Z,8.10
2019-04-21T13:48:22.393Z,7.50
2019-04-21T13:52:28.910Z,7.80
2019-04-21T13:56:34.440Z,7.90
2019-04-21T14:00:40.023Z,8.30
2019-04-21T14:04:45.415Z,7.30
2019-04-21T14:08:51.226Z,8.10
2019-04-21T14:12:58.400Z,9.80
2019-04-21T14:17:05.391Z,7.80
2019-04-21T14:21:11.371Z,7.10
2019-04-21T14:25:17.683Z,7.00
2019-04-21T14:29:24.138Z,7.70
2019-04-21T14:33:29.860Z,8.30
2019-04-21T14:37:34.954Z,9.30
2019-04-21T14:41:40.395Z,8.40
2019-04-21T14:45:56.869Z,7.50
2019-04-21T14:50:24.434Z,7.00
2019-04-21T14:54:54.471Z,6.90
2019-04-21T14:59:01.358Z,7.80
2019-04-21T15:03:07.542Z,8.20
2019-04-21T15:07:12.953Z,10.50
2019-04-21T15:11:18.065Z,10.00
2019-04-21T15:15:23.538Z,7.50
2019-04-21T15:19:28.788Z,9.40
2019-04-21T15:23:34.012Z,9.90
2019-04-21T15:27:39.098Z,11.80
2019-04-21T15:31:44.821Z,14.20
2019-04-21T15:35:51.205Z,17.30
2019-04-21T15:39:56.460Z,20.50
2019-04-21T15:44:04.048Z,20.00
2019-04-21T15:48:08.230Z,19.50
2019-04-21T15:52:13.860Z,20.90
2019-04-21T15:56:44.834Z,22.00
2019-04-21T16:00:58.608Z,22.20
2019-04-21T16:05:04.721Z,22.50
2019-04-21T16:09:14.963Z,23.20
2019-04-21T16:13:19.240Z,24.00
2019-04-21T16:17:25.355Z,25.70
2019-04-21T16:21:31.654Z,23.20
2019-04-21T16:25:36.980Z,23.10
2019-04-21T16:29:42.107Z,24.10
2019-04-21T16:33:49.045Z,25.60
2019-04-21T16:37:57.099Z,28.90
2019-04-21T16:42:02.632Z,25.70
2019-04-21T16:46:10.791Z,26.80
2019-04-21T16:50:16.689Z,28.30
2019-04-21T16:54:28.099Z,28.50
2019-04-21T16:58:45.893Z,27.40
2019-04-21T17:02:52.386Z,29.80
2019-04-21T17:06:58.789Z,31.30
2019-04-21T17:11:12.830Z,32.40
2019-04-21T17:15:28.323Z,36.10
2019-04-21T17:19:27.110Z,37.40
2019-04-21T17:23:25.282Z,36.70
2019-04-21T17:27:31.167Z,40.30
2019-04-21T17:31:37.157Z,41.80
2019-04-21T17:35:42.781Z,42.70
2019-04-21T17:39:49.171Z,44.00
2019-04-21T17:43:54.413Z,44.00
2019-04-21T17:48:04.940Z,44.80
2019-04-21T17:52:43.722Z,45.10
2019-04-21T17:57:07.861Z,46.00
2019-04-21T18:01:12.991Z,45.80
2019-04-21T18:05:26.014Z,48.40
2019-04-21T18:09:31.520Z,49.30
2019-04-21T18:13:18.058Z,49.10
2019-04-21T18:17:22.536Z,51.20
2019-04-21T18:21:34.681Z,50.50
2019-04-21T18:25:47.372Z,51.30
2019-04-21T18:29:46.565Z,52.50
2019-04-21T18:34:12.779Z,52.90
2019-04-21T18:38:26.092Z,53.70
2019-04-21T18:42:48.141Z,53.60
2019-04-21T18:47:06.877Z,53.70
2019-04-21T18:51:03.003Z,54.50
2019-04-21T18:55:16.640Z,55.20
2019-04-21T18:59:09.643Z,56.20
2019-04-21T19:03:20.884Z,55.40
2019-04-21T19:07:37.661Z,56.30
2019-04-21T19:11:49.714Z,58.20
2019-04-21T19:16:11.120Z,57.80
2019-04-21T19:20:07.107Z,57.90
2019-04-21T19:24:17.947Z,58.60
2019-04-21T19:28:13.360Z,59.00
2019-04-21T19:32:21.130Z,60.00
2019-04-21T19:36:08.765Z,59.80
2019-04-21T19:40:31.621Z,60.30
2019-04-21T19:44:38.273Z,60.20
2019-04-21T19:48:58.857Z,61.20
2019-04-21T19:52:47.357Z,62.80
2019-04-21T19:56:42.972Z,62.80
2019-04-21T20:00:50.847Z,62.70
2019-04-21T20:05:03.396Z,62.40
2019-04-21T20:10:03.459Z,63.80
2019-04-21T20:14:41.331Z,62.40
2019-04-21T20:18:08.895Z,64.70
2019-04-21T20:22:03.052Z,65.00
2019-04-21T20:26:10.085Z,65.40
2019-04-21T20:30:36.540Z,65.10
2019-04-21T20:34:43.039Z,66.60
2019-04-21T20:38:39.275Z,67.30
2019-04-21T20:42:47.775Z,68.30
2019-04-21T20:46:59.881Z,69.70
2019-04-21T20:51:05.109Z,69.00
2019-04-21T20:55:07.714Z,69.40
2019-04-21T20:59:14.709Z,69.90
2019-04-21T21:03:30.340Z,70.40
2019-04-21T21:07:50.486Z,70.50
2019-04-21T21:11:36.971Z,71.00
2019-04-21T21:15:52.634Z,72.40
2019-04-21T21:19:53.604Z,72.30
2019-04-21T21:23:58.860Z,72.20
2019-04-21T21:27:57.994Z,72.50
2019-04-21T21:36:19.630Z,73.10
2019-04-21T21:40:26.741Z,74.50
2019-04-21T21:44:22.787Z,74.70
2019-04-21T21:48:40.686Z,74.70
2019-04-21T21:52:43.716Z,74.50
2019-04-21T21:56:38.548Z,75.30
2019-04-21T22:00:49.813Z,75.70
2019-04-21T22:05:01.233Z,76.10
2019-04-21T22:08:58.610Z,76.80
2019-04-21T22:13:08.584Z,77.20
2019-04-21T22:17:24.706Z,76.60
2019-04-21T22:21:38.571Z,78.10
2019-04-21T22:25:29.523Z,77.40
2019-04-21T22:29:38.130Z,77.70
2019-04-21T22:33:44.916Z,78.70
2019-04-21T22:37:55.800Z,78.90
2019-04-21T22:42:03.156Z,79.10
2019-04-21T22:45:57.235Z,79.70
2019-04-21T22:50:02.719Z,79.10
2019-04-21T22:54:08.233Z,79.70
2019-04-21T22:58:15.926Z,79.90
2019-04-21T23:02:24.721Z,80.20
2019-04-21T23:06:30.903Z,80.20
2019-04-21T23:10:33.294Z,80.90
2019-04-21T23:14:47.451Z,81.10
2019-04-21T23:19:09.655Z,81.10
2019-04-21T23:23:16.140Z,81.40
2019-04-21T23:27:14.226Z,81.60
2019-04-21T23:31:30.504Z,82.40
2019-04-21T23:35:25.440Z,82.50
2019-04-21T23:39:27.384Z,83.00
2019-04-21T23:43:31.341Z,84.20
2019-04-21T23:47:48.110Z,84.50
2019-04-21T23:51:50.058Z,84.70
2019-04-21T23:55:49.508Z,83.80
2019-04-21T23:59:57.419Z,84.50
